createdAt,value
2017-01-25T00:00:34.569Z,0
2017-01-25T00:01:34.533Z,0
2017-01-25T00:02:34.502Z,0
2017-01-25T00:03:34.081Z,0
2017-01-25T00:04:34.064Z,0
2017-01-25T00:05:34.020Z,0
2017-01-25T00:06:34.391Z,0
2017-01-25T00:07:34.376Z,0
2017-01-25T00:08:34.339Z,0
2017-01-25T00:09:33.907Z,0
2017-01-25T00:10:34.290Z,0
2017-01-25T00:11:33.903Z,0
2017-01-25T00:12:33.851Z,0
2017-01-25T00:13:34.191Z,0
2017-01-25T00:14:33.765Z,0
2017-01-25T00:15:33.730Z,0
2017-01-25T00:16:33.714Z,0
2017-01-25T00:17:34.074Z,0
2017-01-25T00:18:34.047Z,0
2017-01-25T00:19:34.013Z,0
2017-01-25T00:20:33.995Z,0
2017-01-25T00:21:33.557Z,0
2017-01-25T00:22:33.954Z,0
2017-01-25T00:23:33.900Z,0
2017-01-25T00:24:33.873Z,0
2017-01-25T00:25:33.851Z,0
2017-01-25T00:26:33.814Z,0
2017-01-25T00:27:33.794Z,0
2017-01-25T00:28:33.762Z,0
2017-01-25T00:29:33.733Z,0
2017-01-25T00:30:33.302Z,0
2017-01-25T00:31:34.019Z,0
2017-01-25T00:32:33.691Z,0
2017-01-25T00:33:33.618Z,0
2017-01-25T00:34:33.201Z,0
2017-01-25T00:35:33.559Z,0
2017-01-25T00:36:33.522Z,0
2017-01-25T00:37:33.095Z,0
2017-01-25T00:38:33.467Z,0
2017-01-25T00:39:33.497Z,0
2017-01-25T00:40:33.012Z,0
2017-01-25T00:41:33.392Z,0
2017-01-25T00:42:32.949Z,0
2017-01-25T00:43:33.326Z,0
2017-01-25T00:44:33.303Z,0
2017-01-25T00:45:33.260Z,0
2017-01-25T00:46:32.837Z,0
2017-01-25T00:47:33.206Z,0
2017-01-25T00:48:33.176Z,0
2017-01-25T00:49:32.767Z,0
2017-01-25T00:50:33.197Z,0
2017-01-25T00:51:32.688Z,0
2017-01-25T00:52:32.279Z,0
2017-01-25T00:53:33.039Z,0
2017-01-25T00:54:33.002Z,0
2017-01-25T00:55:32.593Z,0
2017-01-25T00:56:32.597Z,0
2017-01-25T00:57:32.913Z,0
2017-01-25T00:58:32.497Z,0
2017-01-25T00:59:32.856Z,0
2017-01-25T01:00:32.827Z,0
2017-01-25T01:01:31.996Z,0
2017-01-25T01:02:32.775Z,0
2017-01-25T01:03:32.746Z,0
2017-01-25T01:04:32.309Z,0
2017-01-25T01:05:32.275Z,0
2017-01-25T01:06:32.652Z,0
2017-01-25T01:07:32.223Z,0
2017-01-25T01:08:32.589Z,0
2017-01-25T01:09:32.572Z,0
2017-01-25T01:10:32.131Z,0
2017-01-25T01:11:32.508Z,0
2017-01-25T01:12:32.077Z,0
2017-01-25T01:13:32.455Z,0
2017-01-25T01:14:32.410Z,0
2017-01-25T01:15:32.397Z,0
2017-01-25T01:16:31.958Z,0
2017-01-25T01:17:32.332Z,0
2017-01-25T01:18:31.899Z,0
2017-01-25T01:19:32.370Z,0
2017-01-25T01:20:31.863Z,0
2017-01-25T01:21:31.419Z,0
2017-01-25T01:22:31.783Z,0
2017-01-25T01:23:32.155Z,0
2017-01-25T01:24:32.122Z,0
2017-01-25T01:25:31.694Z,0
2017-01-25T01:26:32.064Z,0
2017-01-25T01:27:31.635Z,0
2017-01-25T01:28:32.037Z,0
2017-01-25T01:29:31.971Z,0
2017-01-25T01:30:31.961Z,0
2017-01-25T01:31:31.560Z,0
2017-01-25T01:32:31.896Z,0
2017-01-25T01:33:31.880Z,0
2017-01-25T01:34:31.878Z,0
2017-01-25T01:35:31.803Z,0
2017-01-25T01:36:31.763Z,0
2017-01-25T01:37:31.747Z,0
2017-01-25T01:38:31.715Z,0
2017-01-25T01:39:31.283Z,0
2017-01-25T01:40:31.554Z,0
2017-01-25T01:41:31.222Z,0
2017-01-25T01:42:31.205Z,0
2017-01-25T01:43:31.559Z,0
2017-01-25T01:44:31.528Z,0
2017-01-25T01:45:31.171Z,0
2017-01-25T01:46:31.375Z,0
2017-01-25T01:47:31.448Z,0
2017-01-25T01:48:31.417Z,0
2017-01-25T01:49:31.386Z,0
2017-01-25T01:50:31.356Z,0
2017-01-25T01:51:31.323Z,0
2017-01-25T01:52:30.898Z,0
2017-01-25T01:53:30.871Z,0
2017-01-25T01:54:31.236Z,0
2017-01-25T01:55:30.848Z,0
2017-01-25T01:56:30.413Z,0
2017-01-25T01:57:30.756Z,0
2017-01-25T01:58:31.120Z,0
2017-01-25T01:59:31.084Z,0
2017-01-25T02:00:30.686Z,0
2017-01-25T02:01:31.031Z,0
2017-01-25T02:02:31.055Z,0
2017-01-25T02:03:30.973Z,0
2017-01-25T02:04:30.941Z,0
2017-01-25T02:05:30.516Z,0
2017-01-25T02:06:30.875Z,0
2017-01-25T02:07:30.448Z,0
2017-01-25T02:08:30.418Z,0
2017-01-25T02:09:30.819Z,0
2017-01-25T02:10:30.363Z,0
2017-01-25T02:11:30.728Z,0
2017-01-25T02:12:30.709Z,0
2017-01-25T02:13:30.728Z,0
2017-01-25T02:14:30.645Z,0
2017-01-25T02:15:29.810Z,0
2017-01-25T02:16:29.393Z,0
2017-01-25T02:17:29.751Z,0
2017-01-25T02:18:30.535Z,0
2017-01-25T02:19:30.494Z,0
2017-01-25T02:20:30.463Z,0
2017-01-25T02:21:30.440Z,0
2017-01-25T02:22:30.403Z,0
2017-01-25T02:23:30.387Z,0
2017-01-25T02:24:30.337Z,0
2017-01-25T02:25:29.964Z,0
2017-01-25T02:26:29.884Z,0
2017-01-25T02:27:29.857Z,0
2017-01-25T02:28:30.225Z,0
2017-01-25T02:29:30.203Z,0
2017-01-25T02:30:30.174Z,0
2017-01-25T02:31:29.781Z,0
2017-01-25T02:32:30.406Z,0
2017-01-25T02:33:29.682Z,0
2017-01-25T02:34:30.043Z,0
2017-01-25T02:35:29.618Z,0
2017-01-25T02:36:29.984Z,0
2017-01-25T02:37:29.983Z,0
2017-01-25T02:38:29.829Z,0
2017-01-25T02:39:29.499Z,0
2017-01-25T02:40:29.470Z,0
2017-01-25T02:41:29.832Z,0
2017-01-25T02:42:29.806Z,0
2017-01-25T02:43:29.381Z,0
2017-01-25T02:44:29.387Z,0
2017-01-25T02:45:29.717Z,0
2017-01-25T02:46:29.294Z,0
2017-01-25T02:47:29.249Z,0
2017-01-25T02:48:29.631Z,0
2017-01-25T02:49:29.604Z,0
2017-01-25T02:50:29.171Z,0
2017-01-25T02:51:29.536Z,0
2017-01-25T02:52:29.503Z,0
2017-01-25T02:53:29.485Z,0
2017-01-25T02:54:29.094Z,0
2017-01-25T02:55:29.425Z,0
2017-01-25T02:56:28.590Z,0
2017-01-25T02:57:28.957Z,0
2017-01-25T02:58:29.628Z,0
2017-01-25T02:59:29.288Z,0
2017-01-25T03:00:29.262Z,0
2017-01-25T03:01:28.830Z,0
2017-01-25T03:02:29.216Z,0
2017-01-25T03:03:28.824Z,0
2017-01-25T03:04:29.144Z,0
2017-01-25T03:05:28.313Z,0
2017-01-25T03:06:29.080Z,0
2017-01-25T03:07:28.679Z,0
2017-01-25T03:08:29.032Z,0
2017-01-25T03:09:29.022Z,0
2017-01-25T03:10:28.957Z,0
2017-01-25T03:11:28.138Z,0
2017-01-25T03:12:28.901Z,0
2017-01-25T03:13:28.920Z,0
2017-01-25T03:14:28.440Z,0
2017-01-25T03:15:28.404Z,0
2017-01-25T03:16:28.782Z,0
2017-01-25T03:17:28.351Z,0
2017-01-25T03:18:28.322Z,0
2017-01-25T03:19:28.698Z,0
2017-01-25T03:20:28.265Z,0
2017-01-25T03:21:28.637Z,0
2017-01-25T03:22:28.201Z,0
2017-01-25T03:23:28.575Z,0
2017-01-25T03:24:28.548Z,0
2017-01-25T03:25:28.111Z,0
2017-01-25T03:26:28.083Z,0
2017-01-25T03:27:28.105Z,0
2017-01-25T03:28:28.326Z,0
2017-01-25T03:29:28.386Z,0
2017-01-25T03:30:28.357Z,0
2017-01-25T03:31:28.375Z,0
2017-01-25T03:32:27.894Z,0
2017-01-25T03:33:28.274Z,0
2017-01-25T03:34:27.830Z,0
2017-01-25T03:35:27.805Z,0
2017-01-25T03:36:28.176Z,0
2017-01-25T03:37:27.398Z,0
2017-01-25T03:38:27.719Z,0
2017-01-25T03:39:28.091Z,0
2017-01-25T03:40:27.658Z,0
2017-01-25T03:41:27.633Z,0
2017-01-25T03:42:27.998Z,0
2017-01-25T03:43:27.571Z,0
2017-01-25T03:44:27.943Z,0
2017-01-25T03:45:27.509Z,0
2017-01-25T03:46:27.477Z,0
2017-01-25T03:47:27.845Z,0
2017-01-25T03:48:27.462Z,0
2017-01-25T03:49:27.788Z,0
2017-01-25T03:50:27.757Z,0
2017-01-25T03:51:27.733Z,0
2017-01-25T03:52:27.300Z,0
2017-01-25T03:53:27.268Z,0
2017-01-25T03:54:27.637Z,0
2017-01-25T03:55:27.211Z,0
2017-01-25T03:56:27.578Z,0
2017-01-25T03:57:27.586Z,0
2017-01-25T03:58:27.526Z,0
2017-01-25T03:59:27.540Z,0
2017-01-25T04:00:27.458Z,0
2017-01-25T04:01:27.021Z,0
2017-01-25T04:02:27.475Z,0
2017-01-25T04:03:27.360Z,0
2017-01-25T04:04:27.376Z,0
2017-01-25T04:05:27.311Z,0
2017-01-25T04:06:27.270Z,0
2017-01-25T04:07:27.237Z,0
2017-01-25T04:08:27.210Z,0
2017-01-25T04:09:26.486Z,0
2017-01-25T04:10:27.159Z,0
2017-01-25T04:11:27.127Z,0
2017-01-25T04:12:27.094Z,0
2017-01-25T04:13:27.068Z,0
2017-01-25T04:14:26.939Z,0
2017-01-25T04:15:26.602Z,0
2017-01-25T04:16:26.585Z,0
2017-01-25T04:17:26.191Z,0
2017-01-25T04:18:26.514Z,0
2017-01-25T04:19:26.485Z,0
2017-01-25T04:20:26.851Z,0
2017-01-25T04:21:26.423Z,0
2017-01-25T04:22:26.797Z,0
2017-01-25T04:23:26.366Z,0
2017-01-25T04:24:26.729Z,0
2017-01-25T04:25:26.708Z,0
2017-01-25T04:26:26.671Z,0
2017-01-25T04:27:26.646Z,0
2017-01-25T04:28:26.600Z,0
2017-01-25T04:29:26.181Z,0
2017-01-25T04:30:26.571Z,0
2017-01-25T04:31:26.522Z,0
2017-01-25T04:32:26.095Z,0
2017-01-25T04:33:26.459Z,0
2017-01-25T04:34:26.026Z,0
2017-01-25T04:35:26.394Z,0
2017-01-25T04:36:26.365Z,0
2017-01-25T04:37:25.532Z,0
2017-01-25T04:38:26.303Z,0
2017-01-25T04:39:25.866Z,0
2017-01-25T04:40:26.249Z,0
2017-01-25T04:41:25.820Z,0
2017-01-25T04:42:26.184Z,0
2017-01-25T04:43:26.151Z,0
2017-01-25T04:44:26.524Z,0
2017-01-25T04:45:25.697Z,0
2017-01-25T04:46:25.667Z,0
2017-01-25T04:47:26.068Z,0
2017-01-25T04:48:26.017Z,0
2017-01-25T04:49:25.187Z,0
2017-01-25T04:50:25.957Z,0
2017-01-25T04:51:25.515Z,0
2017-01-25T04:52:25.941Z,0
2017-01-25T04:53:25.447Z,0
2017-01-25T04:54:25.817Z,0
2017-01-25T04:55:24.987Z,0
2017-01-25T04:56:26.020Z,0
2017-01-25T04:57:25.378Z,0
2017-01-25T04:58:25.318Z,0
2017-01-25T04:59:25.670Z,0
2017-01-25T05:00:24.842Z,0
2017-01-25T05:01:25.205Z,0
2017-01-25T05:02:25.180Z,0
2017-01-25T05:03:25.577Z,0
2017-01-25T05:04:25.518Z,0
2017-01-25T05:05:25.486Z,0
2017-01-25T05:06:25.048Z,0
2017-01-25T05:07:25.027Z,0
2017-01-25T05:08:25.391Z,0
2017-01-25T05:09:25.379Z,0
2017-01-25T05:10:25.330Z,0
2017-01-25T05:11:25.335Z,0
2017-01-25T05:12:24.876Z,0
2017-01-25T05:13:24.438Z,0
2017-01-25T05:14:25.211Z,0
2017-01-25T05:15:25.176Z,0
2017-01-25T05:16:25.143Z,0
2017-01-25T05:17:25.121Z,0
2017-01-25T05:18:24.691Z,0
2017-01-25T05:19:24.656Z,0
2017-01-25T05:20:24.633Z,0
2017-01-25T05:21:25.049Z,0
2017-01-25T05:22:24.959Z,0
2017-01-25T05:23:24.541Z,0
2017-01-25T05:24:24.510Z,0
2017-01-25T05:25:24.875Z,0
2017-01-25T05:26:24.838Z,0
2017-01-25T05:27:24.441Z,0
2017-01-25T05:28:24.786Z,0
2017-01-25T05:29:24.778Z,0
2017-01-25T05:30:24.322Z,0
2017-01-25T05:31:23.896Z,0
2017-01-25T05:32:24.661Z,0
2017-01-25T05:33:24.240Z,0
2017-01-25T05:34:24.217Z,0
2017-01-25T05:35:24.203Z,0
2017-01-25T05:36:24.534Z,0
2017-01-25T05:37:24.558Z,0
2017-01-25T05:38:24.494Z,0
2017-01-25T05:39:24.485Z,0
2017-01-25T05:40:24.411Z,0
2017-01-25T05:41:23.989Z,0
2017-01-25T05:42:23.955Z,0
2017-01-25T05:43:24.378Z,0
2017-01-25T05:44:24.290Z,0
2017-01-25T05:45:23.858Z,0
2017-01-25T05:46:23.431Z,0
2017-01-25T05:47:24.222Z,0
2017-01-25T05:48:23.765Z,0
2017-01-25T05:49:24.139Z,0
2017-01-25T05:50:24.133Z,0
2017-01-25T05:51:24.574Z,0
2017-01-25T05:52:23.253Z,0
2017-01-25T05:53:24.011Z,0
2017-01-25T05:54:23.641Z,0
2017-01-25T05:55:23.956Z,0
2017-01-25T05:56:23.920Z,0
2017-01-25T05:57:23.899Z,0
2017-01-25T05:58:23.466Z,0
2017-01-25T05:59:23.829Z,0
2017-01-25T06:00:23.799Z,0
2017-01-25T06:01:23.374Z,0
2017-01-25T06:02:23.733Z,0
2017-01-25T06:03:23.309Z,0
2017-01-25T06:04:23.276Z,0
2017-01-25T06:05:23.249Z,0
2017-01-25T06:06:23.613Z,0
2017-01-25T06:07:22.787Z,0
2017-01-25T06:08:23.554Z,0
2017-01-25T06:09:23.519Z,0
2017-01-25T06:10:23.492Z,0
2017-01-25T06:11:23.063Z,0
2017-01-25T06:12:23.030Z,0
2017-01-25T06:13:23.413Z,0
2017-01-25T06:14:23.375Z,0
2017-01-25T06:15:23.337Z,0
2017-01-25T06:16:23.311Z,0
2017-01-25T06:17:23.284Z,0
2017-01-25T06:18:23.244Z,0
2017-01-25T06:19:22.813Z,0
2017-01-25T06:20:22.787Z,0
2017-01-25T06:21:23.467Z,0
2017-01-25T06:22:22.781Z,0
2017-01-25T06:23:22.295Z,0
2017-01-25T06:24:23.059Z,0
2017-01-25T06:25:21.841Z,0
2017-01-25T06:26:23.008Z,0
2017-01-25T06:27:22.571Z,0
2017-01-25T06:28:22.542Z,0
2017-01-25T06:29:22.515Z,0
2017-01-25T06:30:22.879Z,0
2017-01-25T06:31:22.850Z,0
2017-01-25T06:32:22.413Z,0
2017-01-25T06:33:22.794Z,0
2017-01-25T06:34:22.353Z,0
2017-01-25T06:35:22.324Z,0
2017-01-25T06:36:22.746Z,0
2017-01-25T06:37:22.659Z,0
2017-01-25T06:38:22.635Z,0
2017-01-25T06:39:22.592Z,0
2017-01-25T06:40:22.174Z,4
2017-01-25T06:41:22.139Z,4
2017-01-25T06:42:22.516Z,0
2017-01-25T06:43:22.084Z,4
2017-01-25T06:44:22.446Z,4
2017-01-25T06:45:22.024Z,4
2017-01-25T06:46:22.382Z,0
2017-01-25T06:47:22.365Z,4
2017-01-25T06:48:21.530Z,4
2017-01-25T06:49:22.300Z,8
2017-01-25T06:50:21.866Z,8
2017-01-25T06:51:22.237Z,8
2017-01-25T06:52:21.802Z,12
2017-01-25T06:53:21.773Z,12
2017-01-25T06:54:22.149Z,12
2017-01-25T06:55:21.708Z,16
2017-01-25T06:56:22.080Z,16
2017-01-25T06:57:22.106Z,20
2017-01-25T06:58:22.066Z,24
2017-01-25T06:59:22.001Z,32
2017-01-25T07:00:21.986Z,36
2017-01-25T07:01:21.929Z,40
2017-01-25T07:02:21.890Z,48
2017-01-25T07:03:21.865Z,52
2017-01-25T07:04:21.440Z,64
2017-01-25T07:05:21.406Z,68
2017-01-25T07:06:21.782Z,80
2017-01-25T07:07:21.837Z,92
2017-01-25T07:08:21.321Z,104
2017-01-25T07:09:20.897Z,116
2017-01-25T07:10:21.650Z,128
2017-01-25T07:11:21.621Z,144
2017-01-25T07:12:21.596Z,160
2017-01-25T07:13:21.558Z,176
2017-01-25T07:14:21.130Z,192
2017-01-25T07:15:21.101Z,212
2017-01-25T07:16:21.473Z,232
2017-01-25T07:17:21.482Z,252
2017-01-25T07:18:21.400Z,276
2017-01-25T07:19:20.969Z,300
2017-01-25T07:20:21.346Z,324
2017-01-25T07:21:20.910Z,348
2017-01-25T07:22:21.284Z,376
2017-01-25T07:23:21.257Z,408
2017-01-25T07:24:21.222Z,436
2017-01-25T07:25:21.189Z,460
2017-01-25T07:26:21.157Z,492
2017-01-25T07:27:21.117Z,528
2017-01-25T07:28:21.101Z,560
2017-01-25T07:29:20.708Z,592
2017-01-25T07:30:20.287Z,632
2017-01-25T07:31:20.614Z,672
2017-01-25T07:32:20.977Z,720
2017-01-25T07:33:21.238Z,760
2017-01-25T07:34:20.911Z,804
2017-01-25T07:35:20.485Z,848
2017-01-25T07:36:20.844Z,892
2017-01-25T07:37:20.836Z,936
2017-01-25T07:38:20.784Z,980
2017-01-25T07:39:20.359Z,1028
2017-01-25T07:40:20.727Z,1072
2017-01-25T07:41:20.687Z,1124
2017-01-25T07:42:20.666Z,1180
2017-01-25T07:43:19.835Z,1232
2017-01-25T07:44:20.599Z,1292
2017-01-25T07:45:20.169Z,1352
2017-01-25T07:46:20.136Z,1412
2017-01-25T07:47:20.536Z,1472
2017-01-25T07:48:20.488Z,1540
2017-01-25T07:49:19.949Z,1608
2017-01-25T07:50:20.417Z,1672
2017-01-25T07:51:19.986Z,1740
2017-01-25T07:52:20.064Z,1808
2017-01-25T07:53:20.333Z,1872
2017-01-25T07:54:19.898Z,1924
2017-01-25T07:55:20.271Z,1984
2017-01-25T07:56:19.839Z,2048
2017-01-25T07:57:20.210Z,2108
2017-01-25T07:58:20.191Z,2160
2017-01-25T07:59:20.146Z,2224
2017-01-25T08:00:20.123Z,2292
2017-01-25T08:01:19.689Z,2364
2017-01-25T08:02:20.069Z,2436
2017-01-25T08:03:19.631Z,2528
2017-01-25T08:04:19.648Z,2628
2017-01-25T08:05:19.624Z,2736
2017-01-25T08:06:19.944Z,2824
2017-01-25T08:07:19.524Z,2904
2017-01-25T08:08:19.887Z,2964
2017-01-25T08:09:19.455Z,3008
2017-01-25T08:10:19.824Z,3048
2017-01-25T08:11:19.427Z,3108
2017-01-25T08:12:19.770Z,3184
2017-01-25T08:13:19.736Z,3256
2017-01-25T08:14:20.002Z,3356
2017-01-25T08:15:19.730Z,3448
2017-01-25T08:16:19.281Z,3508
2017-01-25T08:17:19.617Z,3576
2017-01-25T08:18:18.786Z,3608
2017-01-25T08:19:19.564Z,3728
2017-01-25T08:20:19.129Z,3824
2017-01-25T08:21:19.133Z,3940
2017-01-25T08:22:19.477Z,4040
2017-01-25T08:23:19.440Z,4124
2017-01-25T08:24:19.419Z,4200
2017-01-25T08:25:18.999Z,4268
2017-01-25T08:26:19.367Z,4344
2017-01-25T08:27:18.930Z,4400
2017-01-25T08:28:19.360Z,4492
2017-01-25T08:29:18.872Z,4580
2017-01-25T08:30:18.453Z,4620
2017-01-25T08:31:19.219Z,4716
2017-01-25T08:32:19.207Z,4704
2017-01-25T08:33:19.174Z,4728
2017-01-25T08:34:19.144Z,4784
2017-01-25T08:35:18.719Z,4844
2017-01-25T08:36:18.699Z,4888
2017-01-25T08:37:18.663Z,4924
2017-01-25T08:38:19.029Z,4976
2017-01-25T08:39:19.007Z,5024
2017-01-25T08:40:18.577Z,5080
2017-01-25T08:41:18.569Z,5160
2017-01-25T08:42:18.923Z,5172
2017-01-25T08:43:18.510Z,5280
2017-01-25T08:44:18.883Z,5380
2017-01-25T08:45:18.444Z,5440
2017-01-25T08:46:18.831Z,5480
2017-01-25T08:47:18.809Z,5592
2017-01-25T08:48:18.764Z,5712
2017-01-25T08:49:17.973Z,5644
2017-01-25T08:50:18.308Z,5648
2017-01-25T08:51:18.702Z,5652
2017-01-25T08:52:18.714Z,5680
2017-01-25T08:53:18.247Z,5712
2017-01-25T08:54:18.611Z,5668
2017-01-25T08:55:18.585Z,5720
2017-01-25T08:56:18.564Z,5836
2017-01-25T08:57:18.162Z,5904
2017-01-25T08:58:18.507Z,6052
2017-01-25T08:59:18.087Z,6264
2017-01-25T09:00:18.060Z,6440
2017-01-25T09:01:19.082Z,6532
2017-01-25T09:02:18.001Z,6540
2017-01-25T09:03:17.991Z,6628
2017-01-25T09:04:18.355Z,6496
2017-01-25T09:05:17.997Z,6024
2017-01-25T09:06:17.908Z,5952
2017-01-25T09:07:18.282Z,5896
2017-01-25T09:08:18.259Z,5808
2017-01-25T09:09:18.237Z,5796
2017-01-25T09:10:17.798Z,5884
2017-01-25T09:11:18.201Z,5900
2017-01-25T09:12:18.165Z,5924
2017-01-25T09:13:17.728Z,5928
2017-01-25T09:14:18.105Z,5940
2017-01-25T09:15:17.670Z,5976
2017-01-25T09:16:18.089Z,5988
2017-01-25T09:17:18.033Z,5964
2017-01-25T09:18:17.590Z,6000
2017-01-25T09:19:17.578Z,5948
2017-01-25T09:20:17.151Z,6016
2017-01-25T09:21:17.520Z,5992
2017-01-25T09:22:17.973Z,5988
2017-01-25T09:23:17.456Z,5992
2017-01-25T09:24:17.432Z,6052
2017-01-25T09:25:17.011Z,6020
2017-01-25T09:26:17.780Z,5976
2017-01-25T09:27:17.355Z,6000
2017-01-25T09:28:17.732Z,5992
2017-01-25T09:29:17.700Z,5972
2017-01-25T09:30:16.890Z,6016
2017-01-25T09:31:17.253Z,5860
2017-01-25T09:32:17.222Z,5792
2017-01-25T09:33:17.215Z,5864
2017-01-25T09:34:17.163Z,5784
2017-01-25T09:35:17.536Z,5352
2017-01-25T09:36:17.512Z,5048
2017-01-25T09:37:17.093Z,5208
2017-01-25T09:38:17.463Z,5744
2017-01-25T09:39:17.429Z,5960
2017-01-25T09:40:17.013Z,5816
2017-01-25T09:41:17.371Z,5396
2017-01-25T09:42:31.421Z,5364
2017-01-25T09:43:17.314Z,5924
2017-01-25T09:44:16.904Z,6324
2017-01-25T09:45:17.251Z,6332
2017-01-25T09:46:17.232Z,6584
2017-01-25T09:47:16.812Z,6808
2017-01-25T09:48:17.174Z,6736
2017-01-25T09:49:16.748Z,6024
2017-01-25T09:50:17.116Z,5684
2017-01-25T09:51:16.681Z,5808
2017-01-25T09:52:17.071Z,6252
2017-01-25T09:53:16.238Z,6948
2017-01-25T09:54:16.622Z,7464
2017-01-25T09:55:16.981Z,7308
2017-01-25T09:56:16.983Z,7096
2017-01-25T09:57:16.509Z,7616
2017-01-25T09:58:16.540Z,7844
2017-01-25T09:59:16.069Z,7732
2017-01-25T10:00:16.449Z,7948
2017-01-25T10:01:16.816Z,8184
2017-01-25T10:02:16.390Z,8064
2017-01-25T10:03:16.774Z,7992
2017-01-25T10:04:15.528Z,8152
2017-01-25T10:05:16.751Z,8348
2017-01-25T10:06:16.681Z,8228
2017-01-25T10:07:16.951Z,7908
2017-01-25T10:08:16.647Z,7652
2017-01-25T10:09:15.789Z,7676
2017-01-25T10:10:16.284Z,7944
2017-01-25T10:11:16.187Z,8204
2017-01-25T10:12:15.313Z,8148
2017-01-25T10:13:16.973Z,8152
2017-01-25T10:14:16.066Z,8252
2017-01-25T10:15:15.681Z,8180
2017-01-25T10:16:15.994Z,7960
2017-01-25T10:17:15.617Z,8120
2017-01-25T10:18:16.342Z,8436
2017-01-25T10:19:15.908Z,8424
2017-01-25T10:20:16.287Z,8364
2017-01-25T10:21:16.323Z,8348
2017-01-25T10:22:15.829Z,8420
2017-01-25T10:23:16.254Z,8364
2017-01-25T10:24:16.173Z,8440
2017-01-25T10:25:15.346Z,8680
2017-01-25T10:26:16.130Z,8556
2017-01-25T10:27:15.299Z,8544
2017-01-25T10:28:16.079Z,8740
2017-01-25T10:29:15.632Z,8760
2017-01-25T10:30:15.211Z,8604
2017-01-25T10:31:14.784Z,8404
2017-01-25T10:32:15.558Z,8508
2017-01-25T10:33:15.142Z,8716
2017-01-25T10:34:15.126Z,8696
2017-01-25T10:35:15.876Z,8640
2017-01-25T10:36:15.445Z,8712
2017-01-25T10:37:14.614Z,8752
2017-01-25T10:38:16.093Z,8892
2017-01-25T10:39:15.411Z,8964
2017-01-25T10:40:15.388Z,9000
2017-01-25T10:41:14.505Z,8836
2017-01-25T10:42:14.913Z,8868
2017-01-25T10:43:15.659Z,8756
2017-01-25T10:44:14.828Z,8616
2017-01-25T10:45:15.194Z,8636
2017-01-25T10:46:14.775Z,8728
2017-01-25T10:47:15.181Z,8852
2017-01-25T10:48:14.719Z,9108
2017-01-25T10:49:14.695Z,9008
2017-01-25T10:50:14.684Z,8684
2017-01-25T10:51:15.437Z,8476
2017-01-25T10:52:14.221Z,8428
2017-01-25T10:53:14.586Z,8552
2017-01-25T10:54:14.603Z,8776
2017-01-25T10:55:14.135Z,8796
2017-01-25T10:56:14.559Z,8752
2017-01-25T10:57:14.479Z,8756
2017-01-25T10:58:14.844Z,9004
2017-01-25T10:59:14.105Z,9132
2017-01-25T11:00:14.592Z,9224
2017-01-25T11:01:15.179Z,9220
2017-01-25T11:02:15.142Z,9260
2017-01-25T11:03:14.322Z,9088
2017-01-25T11:04:14.689Z,8620
2017-01-25T11:05:13.999Z,8544
2017-01-25T11:06:14.635Z,9008
2017-01-25T11:07:14.627Z,9296
2017-01-25T11:08:14.585Z,9156
2017-01-25T11:09:14.160Z,9104
2017-01-25T11:10:14.741Z,9124
2017-01-25T11:11:14.090Z,9268
2017-01-25T11:12:14.077Z,9424
2017-01-25T11:13:14.444Z,9576
2017-01-25T11:14:14.463Z,9688
2017-01-25T11:15:14.019Z,9556
2017-01-25T11:16:13.564Z,9440
2017-01-25T11:17:14.737Z,9328
2017-01-25T11:18:13.546Z,9216
2017-01-25T11:19:14.709Z,9412
2017-01-25T11:20:13.846Z,9624
2017-01-25T11:21:14.280Z,9352
2017-01-25T11:22:14.241Z,9108
2017-01-25T11:23:13.371Z,9100
2017-01-25T11:24:14.440Z,9040
2017-01-25T11:25:13.729Z,8824
2017-01-25T11:26:14.539Z,8384
2017-01-25T11:27:28.940Z,8512
2017-01-25T11:28:13.679Z,8780
2017-01-25T11:29:14.310Z,8800
2017-01-25T11:30:14.279Z,8724
2017-01-25T11:31:13.960Z,8780
2017-01-25T11:32:13.521Z,8620
2017-01-25T11:33:14.301Z,8428
2017-01-25T11:34:14.320Z,8604
2017-01-25T11:35:13.857Z,8792
2017-01-25T11:36:13.859Z,8676
2017-01-25T11:37:13.793Z,8648
2017-01-25T11:38:13.772Z,8856
2017-01-25T11:39:13.338Z,8856
2017-01-25T11:40:13.701Z,8596
2017-01-25T11:41:13.683Z,8228
2017-01-25T11:42:13.666Z,8192
2017-01-25T11:43:14.027Z,8204
2017-01-25T11:44:13.603Z,8032
2017-01-25T11:45:13.587Z,8044
2017-01-25T11:46:13.556Z,7864
2017-01-25T11:47:13.533Z,7852
2017-01-25T11:48:13.492Z,8036
2017-01-25T11:49:13.085Z,8196
2017-01-25T11:50:12.646Z,8216
2017-01-25T11:51:13.822Z,8332
2017-01-25T11:52:12.990Z,8348
2017-01-25T11:53:13.269Z,8420
2017-01-25T11:54:12.985Z,8492
2017-01-25T11:55:12.949Z,8584
2017-01-25T11:56:13.287Z,8596
2017-01-25T11:57:12.864Z,8440
2017-01-25T11:58:13.275Z,8148
2017-01-25T11:59:13.243Z,7812
2017-01-25T12:00:12.902Z,7752
2017-01-25T12:01:13.201Z,7776
2017-01-25T12:02:12.337Z,7636
2017-01-25T12:03:13.123Z,7760
2017-01-25T12:04:12.668Z,8052
2017-01-25T12:05:13.056Z,7844
2017-01-25T12:06:12.205Z,7496
2017-01-25T12:07:12.588Z,7276
2017-01-25T12:08:12.549Z,7380
2017-01-25T12:09:12.926Z,7088
2017-01-25T12:10:12.916Z,6912
2017-01-25T12:11:12.979Z,7180
2017-01-25T12:12:12.860Z,7580
2017-01-25T12:13:13.316Z,7488
2017-01-25T12:14:12.428Z,7276
2017-01-25T12:15:12.382Z,6984
2017-01-25T12:16:12.334Z,6768
2017-01-25T12:17:12.731Z,6516
2017-01-25T12:18:12.588Z,6424
2017-01-25T12:19:13.051Z,6192
2017-01-25T12:20:12.232Z,6060
2017-01-25T12:21:13.071Z,6308
2017-01-25T12:22:12.967Z,6552
2017-01-25T12:23:12.944Z,6580
2017-01-25T12:24:12.526Z,6672
2017-01-25T12:25:12.500Z,6844
2017-01-25T12:26:12.467Z,6988
2017-01-25T12:27:12.036Z,7132
2017-01-25T12:28:12.415Z,7280
2017-01-25T12:29:12.779Z,7272
2017-01-25T12:30:12.374Z,7292
2017-01-25T12:31:12.330Z,7588
2017-01-25T12:32:12.713Z,7664
2017-01-25T12:33:12.276Z,7320
2017-01-25T12:34:12.262Z,7300
2017-01-25T12:35:12.618Z,7440
2017-01-25T12:36:12.215Z,7500
2017-01-25T12:37:12.569Z,7660
2017-01-25T12:38:12.554Z,7720
2017-01-25T12:39:12.519Z,7984
2017-01-25T12:40:12.491Z,7972
2017-01-25T12:41:12.112Z,7568
2017-01-25T12:42:12.029Z,7300
2017-01-25T12:43:12.405Z,7544
2017-01-25T12:44:12.379Z,7624
2017-01-25T12:45:12.351Z,7260
2017-01-25T12:46:11.541Z,6792
2017-01-25T12:47:12.300Z,6760
2017-01-25T12:48:11.879Z,6516
2017-01-25T12:49:12.550Z,6272
2017-01-25T12:50:11.864Z,6264
2017-01-25T12:51:11.833Z,6072
2017-01-25T12:52:11.362Z,5660
2017-01-25T12:53:12.185Z,5340
2017-01-25T12:54:11.710Z,5164
2017-01-25T12:55:11.686Z,5248
2017-01-25T12:56:12.058Z,5244
2017-01-25T12:57:11.626Z,4924
2017-01-25T12:58:11.601Z,4840
2017-01-25T12:59:11.182Z,4928
2017-01-25T13:00:11.945Z,4864
2017-01-25T13:01:11.931Z,4932
2017-01-25T13:02:11.912Z,5108
2017-01-25T13:03:11.466Z,5256
2017-01-25T13:04:11.852Z,5324
2017-01-25T13:05:11.004Z,5396
2017-01-25T13:06:11.380Z,5632
2017-01-25T13:07:11.765Z,5904
2017-01-25T13:08:11.734Z,6192
2017-01-25T13:09:11.727Z,6232
2017-01-25T13:10:11.280Z,6160
2017-01-25T13:11:11.283Z,6340
2017-01-25T13:12:11.213Z,6468
2017-01-25T13:13:11.192Z,6384
2017-01-25T13:14:11.575Z,6308
2017-01-25T13:15:11.541Z,6360
2017-01-25T13:16:10.715Z,6380
2017-01-25T13:17:11.485Z,6168
2017-01-25T13:18:11.447Z,5956
2017-01-25T13:19:11.427Z,5852
2017-01-25T13:20:10.994Z,5900
2017-01-25T13:21:10.973Z,5832
2017-01-25T13:22:10.947Z,5772
2017-01-25T13:23:10.966Z,5788
2017-01-25T13:24:11.316Z,5996
2017-01-25T13:25:10.866Z,5984
2017-01-25T13:26:11.241Z,5708
2017-01-25T13:27:11.210Z,5440
2017-01-25T13:28:11.178Z,5504
2017-01-25T13:29:11.153Z,5756
2017-01-25T13:30:11.132Z,5764
2017-01-25T13:31:11.104Z,5532
2017-01-25T13:32:11.073Z,5452
2017-01-25T13:33:11.047Z,5544
2017-01-25T13:34:10.623Z,5580
2017-01-25T13:35:10.194Z,5492
2017-01-25T13:36:10.557Z,5388
2017-01-25T13:37:10.948Z,5304
2017-01-25T13:38:10.912Z,5132
2017-01-25T13:39:10.481Z,5020
2017-01-25T13:40:10.850Z,5176
2017-01-25T13:41:10.833Z,5352
2017-01-25T13:42:10.803Z,5084
2017-01-25T13:43:10.376Z,4924
2017-01-25T13:44:10.342Z,4836
2017-01-25T13:45:10.318Z,4632
2017-01-25T13:46:10.293Z,4452
2017-01-25T13:47:10.670Z,4588
2017-01-25T13:48:10.631Z,4720
2017-01-25T13:49:10.217Z,4700
2017-01-25T13:50:10.590Z,4704
2017-01-25T13:51:10.559Z,4484
2017-01-25T13:52:10.136Z,3960
2017-01-25T13:53:10.496Z,3660
2017-01-25T13:54:10.126Z,3584
2017-01-25T13:55:10.438Z,3588
2017-01-25T13:56:10.190Z,3696
2017-01-25T13:57:10.429Z,3656
2017-01-25T13:58:10.365Z,3660
2017-01-25T13:59:09.936Z,3652
2017-01-25T14:00:10.306Z,3596
2017-01-25T14:01:10.277Z,3752